sensor_id;sensor_type;location;lat;lon;timestamp;temperature;humidity
5556;DHT22;2801;50.972;7.856;2023-02-15T00:02:02;-1.80;99.90
5556;DHT22;2801;50.972;7.856;2023-02-15T00:04:29;-1.90;99.90
5556;DHT22;2801;50.972;7.856;2023-02-15T00:07:15;-1.90;99.90
5556;DHT22;2801;50.972;7.856;2023-02-15T00:09:45;-2.00;99.90
5556;DHT22;2801;50.972;7.856;2023-02-15T00:12:13;-1.90;99.90
5556;DHT22;2801;50.972;7.856;2023-02-15T00:14:40;-1.90;99.90
5556;DHT22;2801;50.972;7.856;2023-02-15T00:17:08;-1.90;99.90
5556;DHT22;2801;50.972;7.856;2023-02-15T00:19:35;-1.90;99.90
5556;DHT22;2801;50.972;7.856;2023-02-15T00:22:02;-1.90;99.90
5556;DHT22;2801;50.972;7.856;2023-02-15T00:24:29;-1.90;99.90
5556;DHT22;2801;50.972;7.856;2023-02-15T00:26:55;-1.90;99.90
5556;DHT22;2801;50.972;7.856;2023-02-15T00:29:22;-1.80;99.90
5556;DHT22;2801;50.972;7.856;2023-02-15T00:31:49;-1.80;99.90
5556;DHT22;2801;50.972;7.856;2023-02-15T00:34:21;-1.80;99.90
5556;DHT22;2801;50.972;7.856;2023-02-15T00:36:49;-1.80;99.90
5556;DHT22;2801;50.972;7.856;2023-02-15T00:39:17;-1.80;99.90
5556;DHT22;2801;50.972;7.856;2023-02-15T00:41:46;-1.70;99.90
5556;DHT22;2801;50.972;7.856;2023-02-15T00:44:14;-1.80;99.90
5556;DHT22;2801;50.972;7.856;2023-02-15T00:46:41;-1.80;99.90
5556;DHT22;2801;50.972;7.856;2023-02-15T00:49:09;-1.90;99.90
5556;DHT22;2801;50.972;7.856;2023-02-15T00:51:37;-1.90;99.90
5556;DHT22;2801;50.972;7.856;2023-02-15T00:54:04;-1.90;99.90
5556;DHT22;2801;50.972;7.856;2023-02-15T00:56:32;-1.90;99.90
5556;DHT22;2801;50.972;7.856;2023-02-15T00:58:59;-1.90;99.90
5556;DHT22;2801;50.972;7.856;2023-02-15T01:01:25;-1.90;99.90
5556;DHT22;2801;50.972;7.856;2023-02-15T01:03:52;-1.90;99.90
5556;DHT22;2801;50.972;7.856;2023-02-15T01:06:19;-2.00;99.90
5556;DHT22;2801;50.972;7.856;2023-02-15T01:08:47;-2.00;99.90
5556;DHT22;2801;50.972;7.856;2023-02-15T01:11:18;-2.00;99.90
5556;DHT22;2801;50.972;7.856;2023-02-15T01:13:51;-1.90;99.90
5556;DHT22;2801;50.972;7.856;2023-02-15T01:16:20;-1.90;99.90
5556;DHT22;2801;50.972;7.856;2023-02-15T01:18:47;-1.90;99.90
5556;DHT22;2801;50.972;7.856;2023-02-15T01:21:20;-1.90;99.90
5556;DHT22;2801;50.972;7.856;2023-02-15T01:23:49;-1.90;99.90
5556;DHT22;2801;50.972;7.856;2023-02-15T01:26:16;-1.80;99.90
5556;DHT22;2801;50.972;7.856;2023-02-15T01:28:44;-1.80;99.90
5556;DHT22;2801;50.972;7.856;2023-02-15T01:31:14;-1.80;99.90
5556;DHT22;2801;50.972;7.856;2023-02-15T01:33:43;-1.80;99.90
5556;DHT22;2801;50.972;7.856;2023-02-15T01:36:10;-1.80;99.90
5556;DHT22;2801;50.972;7.856;2023-02-15T01:38:37;-1.90;99.90
5556;DHT22;2801;50.972;7.856;2023-02-15T01:41:06;-1.90;99.90
5556;DHT22;2801;50.972;7.856;2023-02-15T01:43:59;-2.00;99.90
5556;DHT22;2801;50.972;7.856;2023-02-15T01:46:39;-2.00;99.90
5556;DHT22;2801;50.972;7.856;2023-02-15T01:49:16;-2.10;99.90
5556;DHT22;2801;50.972;7.856;2023-02-15T01:51:48;-2.10;99.90
5556;DHT22;2801;50.972;7.856;2023-02-15T01:54:25;-2.10;99.90
5556;DHT22;2801;50.972;7.856;2023-02-15T01:57:07;-2.20;99.90
5556;DHT22;2801;50.972;7.856;2023-02-15T01:59:39;-2.20;99.90
5556;DHT22;2801;50.972;7.856;2023-02-15T02:02:13;-2.20;99.90
5556;DHT22;2801;50.972;7.856;2023-02-15T02:04:52;-2.20;99.90
5556;DHT22;2801;50.972;7.856;2023-02-15T02:07:27;-2.20;99.90
5556;DHT22;2801;50.972;7.856;2023-02-15T02:09:55;-2.20;99.90
5556;DHT22;2801;50.972;7.856;2023-02-15T02:12:22;-2.30;99.90
5556;DHT22;2801;50.972;7.856;2023-02-15T02:14:51;-2.30;99.90
5556;DHT22;2801;50.972;7.856;2023-02-15T02:23:33;-2.20;99.90
5556;DHT22;2801;50.972;7.856;2023-02-15T02:39:22;-2.30;99.90
5556;DHT22;2801;50.972;7.856;2023-02-15T02:44:51;-2.30;99.90
5556;DHT22;2801;50.972;7.856;2023-02-15T02:47:47;-2.30;99.90
5556;DHT22;2801;50.972;7.856;2023-02-15T02:50:22;-2.30;99.90
5556;DHT22;2801;50.972;7.856;2023-02-15T02:52:54;-2.30;99.90
5556;DHT22;2801;50.972;7.856;2023-02-15T02:55:23;-2.30;99.90
5556;DHT22;2801;50.972;7.856;2023-02-15T03:00:38;-2.40;99.90
5556;DHT22;2801;50.972;7.856;2023-02-15T03:03:27;-2.40;99.90
5556;DHT22;2801;50.972;7.856;2023-02-15T03:06:02;-2.40;99.90
5556;DHT22;2801;50.972;7.856;2023-02-15T03:08:42;-2.30;99.90
5556;DHT22;2801;50.972;7.856;2023-02-15T03:11:13;-2.30;99.90
5556;DHT22;2801;50.972;7.856;2023-02-15T03:13:41;-2.30;99.90
5556;DHT22;2801;50.972;7.856;2023-02-15T03:16:11;-2.40;99.90
5556;DHT22;2801;50.972;7.856;2023-02-15T03:19:09;-2.30;99.90
5556;DHT22;2801;50.972;7.856;2023-02-15T03:21:49;-2.30;99.90
5556;DHT22;2801;50.972;7.856;2023-02-15T03:24:46;-2.30;99.90
5556;DHT22;2801;50.972;7.856;2023-02-15T03:27:23;-2.30;99.90
5556;DHT22;2801;50.972;7.856;2023-02-15T03:29:55;-2.30;99.90
5556;DHT22;2801;50.972;7.856;2023-02-15T03:32:28;-2.40;99.90
5556;DHT22;2801;50.972;7.856;2023-02-15T03:34:59;-2.40;99.90
5556;DHT22;2801;50.972;7.856;2023-02-15T03:40:11;-2.40;99.90
5556;DHT22;2801;50.972;7.856;2023-02-15T03:43:21;-2.40;99.90
5556;DHT22;2801;50.972;7.856;2023-02-15T03:46:35;-2.50;99.90
5556;DHT22;2801;50.972;7.856;2023-02-15T03:49:12;-2.60;99.90
5556;DHT22;2801;50.972;7.856;2023-02-15T03:51:46;-2.60;99.90
5556;DHT22;2801;50.972;7.856;2023-02-15T03:54:27;-2.60;99.90
5556;DHT22;2801;50.972;7.856;2023-02-15T03:57:23;-2.60;99.90
5556;DHT22;2801;50.972;7.856;2023-02-15T04:00:17;-2.60;99.90
5556;DHT22;2801;50.972;7.856;2023-02-15T04:05:44;-2.60;99.90
5556;DHT22;2801;50.972;7.856;2023-02-15T04:08:12;-2.60;99.90
5556;DHT22;2801;50.972;7.856;2023-02-15T04:10:39;-2.50;99.90
5556;DHT22;2801;50.972;7.856;2023-02-15T04:13:20;-2.40;99.90
5556;DHT22;2801;50.972;7.856;2023-02-15T04:15:48;-2.20;99.90
5556;DHT22;2801;50.972;7.856;2023-02-15T04:18:35;-2.10;99.90
5556;DHT22;2801;50.972;7.856;2023-02-15T04:21:26;-2.00;99.90
5556;DHT22;2801;50.972;7.856;2023-02-15T04:24:13;-2.10;99.90
5556;DHT22;2801;50.972;7.856;2023-02-15T04:26:59;-2.20;99.90
5556;DHT22;2801;50.972;7.856;2023-02-15T04:29:27;-2.30;99.90
5556;DHT22;2801;50.972;7.856;2023-02-15T04:31:57;-2.30;99.90
5556;DHT22;2801;50.972;7.856;2023-02-15T04:34:26;-2.40;99.90
5556;DHT22;2801;50.972;7.856;2023-02-15T04:36:53;-2.40;99.90
5556;DHT22;2801;50.972;7.856;2023-02-15T04:39:20;-2.50;99.90
5556;DHT22;2801;50.972;7.856;2023-02-15T04:41:46;-2.50;99.90
5556;DHT22;2801;50.972;7.856;2023-02-15T04:44:14;-2.50;99.90
5556;DHT22;2801;50.972;7.856;2023-02-15T04:46:41;-2.50;99.90
5556;DHT22;2801;50.972;7.856;2023-02-15T04:49:08;-2.60;99.90
5556;DHT22;2801;50.972;7.856;2023-02-15T04:51:36;-2.50;99.90
5556;DHT22;2801;50.972;7.856;2023-02-15T04:54:03;-2.40;99.90
5556;DHT22;2801;50.972;7.856;2023-02-15T04:56:30;-2.50;99.90
5556;DHT22;2801;50.972;7.856;2023-02-15T04:58:57;-2.50;99.90
5556;DHT22;2801;50.972;7.856;2023-02-15T05:01:24;-2.60;99.90
5556;DHT22;2801;50.972;7.856;2023-02-15T05:03:51;-2.70;99.90
5556;DHT22;2801;50.972;7.856;2023-02-15T05:06:18;-2.70;99.90
5556;DHT22;2801;50.972;7.856;2023-02-15T05:08:45;-2.70;99.90
5556;DHT22;2801;50.972;7.856;2023-02-15T05:11:12;-2.70;99.90
5556;DHT22;2801;50.972;7.856;2023-02-15T05:13:39;-2.80;99.90
5556;DHT22;2801;50.972;7.856;2023-02-15T05:16:05;-2.80;99.90
5556;DHT22;2801;50.972;7.856;2023-02-15T05:18:32;-2.90;99.90
5556;DHT22;2801;50.972;7.856;2023-02-15T05:20:59;-2.80;99.90
5556;DHT22;2801;50.972;7.856;2023-02-15T05:23:26;-2.90;99.90
5556;DHT22;2801;50.972;7.856;2023-02-15T05:25:53;-2.80;99.90
5556;DHT22;2801;50.972;7.856;2023-02-15T05:28:38;-2.80;99.90
5556;DHT22;2801;50.972;7.856;2023-02-15T05:31:11;-2.70;99.90
5556;DHT22;2801;50.972;7.856;2023-02-15T05:33:40;-2.80;99.90
5556;DHT22;2801;50.972;7.856;2023-02-15T05:36:07;-2.80;99.90
5556;DHT22;2801;50.972;7.856;2023-02-15T05:38:35;-2.80;99.90
5556;DHT22;2801;50.972;7.856;2023-02-15T05:41:08;-2.80;99.90
5556;DHT22;2801;50.972;7.856;2023-02-15T05:43:37;-2.80;99.90
5556;DHT22;2801;50.972;7.856;2023-02-15T05:46:05;-2.80;99.90
5556;DHT22;2801;50.972;7.856;2023-02-15T05:48:32;-2.90;99.90
5556;DHT22;2801;50.972;7.856;2023-02-15T05:51:05;-2.80;99.90
5556;DHT22;2801;50.972;7.856;2023-02-15T05:53:36;-2.90;99.90
5556;DHT22;2801;50.972;7.856;2023-02-15T05:56:06;-2.90;99.90
5556;DHT22;2801;50.972;7.856;2023-02-15T05:58:37;-3.00;99.90
5556;DHT22;2801;50.972;7.856;2023-02-15T06:01:13;-3.00;99.90
5556;DHT22;2801;50.972;7.856;2023-02-15T06:03:42;-3.00;99.90
5556;DHT22;2801;50.972;7.856;2023-02-15T06:06:09;-3.00;99.90
5556;DHT22;2801;50.972;7.856;2023-02-15T06:08:37;-3.00;99.90
5556;DHT22;2801;50.972;7.856;2023-02-15T06:11:05;-3.00;99.90
5556;DHT22;2801;50.972;7.856;2023-02-15T06:13:33;-3.00;99.90
5556;DHT22;2801;50.972;7.856;2023-02-15T06:16:05;-3.00;99.90
5556;DHT22;2801;50.972;7.856;2023-02-15T06:18:33;-3.00;99.90
5556;DHT22;2801;50.972;7.856;2023-02-15T06:21:00;-3.00;99.90
5556;DHT22;2801;50.972;7.856;2023-02-15T06:23:27;-3.10;99.90
5556;DHT22;2801;50.972;7.856;2023-02-15T06:25:54;-3.10;99.90
5556;DHT22;2801;50.972;7.856;2023-02-15T06:28:21;-3.00;99.90
5556;DHT22;2801;50.972;7.856;2023-02-15T06:30:48;-3.00;99.90
5556;DHT22;2801;50.972;7.856;2023-02-15T06:33:14;-3.00;99.90
5556;DHT22;2801;50.972;7.856;2023-02-15T06:35:41;-3.00;99.90
5556;DHT22;2801;50.972;7.856;2023-02-15T06:38:08;-3.00;99.90
5556;DHT22;2801;50.972;7.856;2023-02-15T06:40:35;-3.00;99.90
5556;DHT22;2801;50.972;7.856;2023-02-15T06:43:02;-2.90;99.90
5556;DHT22;2801;50.972;7.856;2023-02-15T06:45:29;-2.90;99.90
5556;DHT22;2801;50.972;7.856;2023-02-15T06:47:56;-2.90;99.90
5556;DHT22;2801;50.972;7.856;2023-02-15T06:50:23;-2.80;99.90
5556;DHT22;2801;50.972;7.856;2023-02-15T06:52:54;-2.90;99.90
5556;DHT22;2801;50.972;7.856;2023-02-15T06:55:22;-2.80;99.90
5556;DHT22;2801;50.972;7.856;2023-02-15T06:57:49;-2.80;99.90
5556;DHT22;2801;50.972;7.856;2023-02-15T07:00:16;-2.70;99.90
5556;DHT22;2801;50.972;7.856;2023-02-15T07:02:44;-2.70;99.90
5556;DHT22;2801;50.972;7.856;2023-02-15T07:05:11;-2.70;99.90
5556;DHT22;2801;50.972;7.856;2023-02-15T07:07:38;-2.70;99.90
5556;DHT22;2801;50.972;7.856;2023-02-15T07:10:06;-2.60;99.90
5556;DHT22;2801;50.972;7.856;2023-02-15T07:12:33;-2.60;99.90
5556;DHT22;2801;50.972;7.856;2023-02-15T07:15:16;-2.60;99.90
5556;DHT22;2801;50.972;7.856;2023-02-15T07:17:44;-2.60;99.90
5556;DHT22;2801;50.972;7.856;2023-02-15T07:20:15;-2.60;99.90
5556;DHT22;2801;50.972;7.856;2023-02-15T07:22:44;-2.50;99.90
5556;DHT22;2801;50.972;7.856;2023-02-15T07:25:11;-2.50;99.90
5556;DHT22;2801;50.972;7.856;2023-02-15T07:27:39;-2.40;99.90
5556;DHT22;2801;50.972;7.856;2023-02-15T07:30:09;-2.20;99.90
5556;DHT22;2801;50.972;7.856;2023-02-15T07:32:37;-2.10;99.90
5556;DHT22;2801;50.972;7.856;2023-02-15T07:35:24;-2.10;99.90
5556;DHT22;2801;50.972;7.856;2023-02-15T07:37:52;-2.10;99.90
5556;DHT22;2801;50.972;7.856;2023-02-15T07:40:19;-2.00;99.90
5556;DHT22;2801;50.972;7.856;2023-02-15T07:42:50;-1.80;99.90
5556;DHT22;2801;50.972;7.856;2023-02-15T07:45:21;-1.60;99.90
5556;DHT22;2801;50.972;7.856;2023-02-15T07:47:49;-1.40;99.90
5556;DHT22;2801;50.972;7.856;2023-02-15T07:50:16;-1.20;99.90
5556;DHT22;2801;50.972;7.856;2023-02-15T07:52:43;-1.00;99.90
5556;DHT22;2801;50.972;7.856;2023-02-15T07:55:10;-0.80;99.90
5556;DHT22;2801;50.972;7.856;2023-02-15T07:57:43;-0.80;99.90
5556;DHT22;2801;50.972;7.856;2023-02-15T08:00:13;-0.80;99.90
5556;DHT22;2801;50.972;7.856;2023-02-15T08:02:42;-0.70;99.90
5556;DHT22;2801;50.972;7.856;2023-02-15T08:05:14;-0.60;99.90
5556;DHT22;2801;50.972;7.856;2023-02-15T08:07:41;-0.30;99.90
5556;DHT22;2801;50.972;7.856;2023-02-15T08:10:08;-0.10;99.90
5556;DHT22;2801;50.972;7.856;2023-02-15T08:12:35;0.00;99.90
5556;DHT22;2801;50.972;7.856;2023-02-15T08:15:02;0.20;99.90
5556;DHT22;2801;50.972;7.856;2023-02-15T08:17:29;0.50;99.90
5556;DHT22;2801;50.972;7.856;2023-02-15T08:19:55;0.70;99.90
5556;DHT22;2801;50.972;7.856;2023-02-15T08:22:22;0.90;99.90
5556;DHT22;2801;50.972;7.856;2023-02-15T08:24:49;1.10;99.90
5556;DHT22;2801;50.972;7.856;2023-02-15T08:27:16;1.20;99.90
5556;DHT22;2801;50.972;7.856;2023-02-15T08:29:43;1.40;99.90
5556;DHT22;2801;50.972;7.856;2023-02-15T08:32:11;1.60;99.90
5556;DHT22;2801;50.972;7.856;2023-02-15T08:34:41;1.90;99.90
5556;DHT22;2801;50.972;7.856;2023-02-15T08:37:08;2.20;99.90
5556;DHT22;2801;50.972;7.856;2023-02-15T08:39:35;2.40;99.90
5556;DHT22;2801;50.972;7.856;2023-02-15T08:42:03;2.60;99.90
5556;DHT22;2801;50.972;7.856;2023-02-15T08:44:30;2.80;99.90
5556;DHT22;2801;50.972;7.856;2023-02-15T08:46:57;2.90;99.90
5556;DHT22;2801;50.972;7.856;2023-02-15T08:49:32;3.00;99.90
5556;DHT22;2801;50.972;7.856;2023-02-15T08:51:59;3.10;99.90
5556;DHT22;2801;50.972;7.856;2023-02-15T08:54:26;3.40;99.90
5556;DHT22;2801;50.972;7.856;2023-02-15T08:56:53;3.80;99.90
5556;DHT22;2801;50.972;7.856;2023-02-15T08:59:22;4.50;99.90
5556;DHT22;2801;50.972;7.856;2023-02-15T09:01:51;5.60;99.90
5556;DHT22;2801;50.972;7.856;2023-02-15T09:04:19;6.80;99.90
5556;DHT22;2801;50.972;7.856;2023-02-15T09:06:48;8.10;99.90
5556;DHT22;2801;50.972;7.856;2023-02-15T09:09:17;9.20;99.90
5556;DHT22;2801;50.972;7.856;2023-02-15T09:11:46;9.80;99.90
5556;DHT22;2801;50.972;7.856;2023-02-15T09:14:20;10.20;99.90
5556;DHT22;2801;50.972;7.856;2023-02-15T09:16:48;10.90;99.90
5556;DHT22;2801;50.972;7.856;2023-02-15T09:19:19;11.60;99.90
5556;DHT22;2801;50.972;7.856;2023-02-15T09:21:48;11.90;99.90
5556;DHT22;2801;50.972;7.856;2023-02-15T09:24:15;12.10;99.90
5556;DHT22;2801;50.972;7.856;2023-02-15T09:26:45;12.30;99.90
5556;DHT22;2801;50.972;7.856;2023-02-15T09:29:14;12.30;99.90
5556;DHT22;2801;50.972;7.856;2023-02-15T09:31:47;12.30;99.60
5556;DHT22;2801;50.972;7.856;2023-02-15T09:34:19;12.00;99.90
5556;DHT22;2801;50.972;7.856;2023-02-15T09:36:48;11.70;98.60
5556;DHT22;2801;50.972;7.856;2023-02-15T09:39:18;11.30;99.90
5556;DHT22;2801;50.972;7.856;2023-02-15T09:48:39;9.80;99.90
5556;DHT22;2801;50.972;7.856;2023-02-15T09:51:36;9.30;99.90
5556;DHT22;2801;50.972;7.856;2023-02-15T10:00:25;8.40;99.90
5556;DHT22;2801;50.972;7.856;2023-02-15T10:06:05;8.70;99.90
5556;DHT22;2801;50.972;7.856;2023-02-15T10:26:18;7.20;99.90
5556;DHT22;2801;50.972;7.856;2023-02-15T10:28:55;7.70;99.90
5556;DHT22;2801;50.972;7.856;2023-02-15T10:31:43;8.30;99.90
5556;DHT22;2801;50.972;7.856;2023-02-15T10:34:24;8.20;99.90
5556;DHT22;2801;50.972;7.856;2023-02-15T10:40:05;7.70;99.90
5556;DHT22;2801;50.972;7.856;2023-02-15T10:57:13;9.20;99.90
5556;DHT22;2801;50.972;7.856;2023-02-15T11:08:16;8.80;99.90
5556;DHT22;2801;50.972;7.856;2023-02-15T11:10:48;8.70;99.90
5556;DHT22;2801;50.972;7.856;2023-02-15T11:13:21;8.90;99.90
5556;DHT22;2801;50.972;7.856;2023-02-15T11:16:02;9.00;99.90
5556;DHT22;2801;50.972;7.856;2023-02-15T11:18:38;9.30;99.90
5556;DHT22;2801;50.972;7.856;2023-02-15T11:24:13;9.20;99.90
5556;DHT22;2801;50.972;7.856;2023-02-15T11:26:49;9.10;99.90
5556;DHT22;2801;50.972;7.856;2023-02-15T11:29:30;9.10;99.90
5556;DHT22;2801;50.972;7.856;2023-02-15T11:35:03;9.40;99.90
5556;DHT22;2801;50.972;7.856;2023-02-15T11:40:35;9.70;99.90
5556;DHT22;2801;50.972;7.856;2023-02-15T11:43:15;9.80;99.90
5556;DHT22;2801;50.972;7.856;2023-02-15T11:45:47;9.80;99.90
5556;DHT22;2801;50.972;7.856;2023-02-15T11:48:14;9.70;99.90
5556;DHT22;2801;50.972;7.856;2023-02-15T11:50:42;9.70;99.90
5556;DHT22;2801;50.972;7.856;2023-02-15T11:53:16;9.60;99.90
5556;DHT22;2801;50.972;7.856;2023-02-15T11:55:48;9.60;99.90
5556;DHT22;2801;50.972;7.856;2023-02-15T12:01:12;9.70;99.90
5556;DHT22;2801;50.972;7.856;2023-02-15T12:03:51;9.80;99.90
5556;DHT22;2801;50.972;7.856;2023-02-15T12:06:26;9.90;99.90
5556;DHT22;2801;50.972;7.856;2023-02-15T12:09:33;10.00;99.90
5556;DHT22;2801;50.972;7.856;2023-02-15T12:12:39;10.00;99.90
5556;DHT22;2801;50.972;7.856;2023-02-15T12:15:08;10.10;99.90
5556;DHT22;2801;50.972;7.856;2023-02-15T12:17:41;10.00;99.90
5556;DHT22;2801;50.972;7.856;2023-02-15T12:22:54;9.90;99.90
5556;DHT22;2801;50.972;7.856;2023-02-15T12:28:42;10.00;99.90
5556;DHT22;2801;50.972;7.856;2023-02-15T12:31:22;10.00;99.90
5556;DHT22;2801;50.972;7.856;2023-02-15T12:34:00;10.00;99.90
5556;DHT22;2801;50.972;7.856;2023-02-15T12:36:33;10.10;99.90
5556;DHT22;2801;50.972;7.856;2023-02-15T12:44:26;10.50;99.90
5556;DHT22;2801;50.972;7.856;2023-02-15T12:47:06;10.50;99.90
5556;DHT22;2801;50.972;7.856;2023-02-15T12:49:43;10.50;99.90
5556;DHT22;2801;50.972;7.856;2023-02-15T12:54:44;10.70;99.90
5556;DHT22;2801;50.972;7.856;2023-02-15T13:00:11;10.80;99.90
5556;DHT22;2801;50.972;7.856;2023-02-15T13:02:58;10.90;99.90
5556;DHT22;2801;50.972;7.856;2023-02-15T13:05:31;10.90;99.90
5556;DHT22;2801;50.972;7.856;2023-02-15T13:08:14;10.90;99.90
5556;DHT22;2801;50.972;7.856;2023-02-15T13:13:32;10.90;99.90
5556;DHT22;2801;50.972;7.856;2023-02-15T13:16:09;10.90;99.90
5556;DHT22;2801;50.972;7.856;2023-02-15T13:18:45;11.00;99.90
5556;DHT22;2801;50.972;7.856;2023-02-15T13:21:21;11.00;99.90
5556;DHT22;2801;50.972;7.856;2023-02-15T13:24:00;11.00;99.90
5556;DHT22;2801;50.972;7.856;2023-02-15T13:26:32;10.90;99.90
5556;DHT22;2801;50.972;7.856;2023-02-15T13:29:10;10.90;99.90
5556;DHT22;2801;50.972;7.856;2023-02-15T13:31:44;11.00;99.90
5556;DHT22;2801;50.972;7.856;2023-02-15T13:34:24;11.00;99.90
5556;DHT22;2801;50.972;7.856;2023-02-15T13:37:33;11.10;99.90
5556;DHT22;2801;50.972;7.856;2023-02-15T13:43:04;11.10;99.90
5556;DHT22;2801;50.972;7.856;2023-02-15T13:48:59;11.00;99.90
5556;DHT22;2801;50.972;7.856;2023-02-15T13:57:54;10.90;99.90
5556;DHT22;2801;50.972;7.856;2023-02-15T14:09:18;11.00;99.90
5556;DHT22;2801;50.972;7.856;2023-02-15T14:12:47;11.10;99.90
5556;DHT22;2801;50.972;7.856;2023-02-15T14:15:39;10.90;99.90
5556;DHT22;2801;50.972;7.856;2023-02-15T14:18:36;10.80;99.90
5556;DHT22;2801;50.972;7.856;2023-02-15T14:21:17;10.80;99.90
5556;DHT22;2801;50.972;7.856;2023-02-15T14:29:56;10.60;99.90
5556;DHT22;2801;50.972;7.856;2023-02-15T14:32:31;10.60;99.90
5556;DHT22;2801;50.972;7.856;2023-02-15T14:35:14;10.60;99.10
5556;DHT22;2801;50.972;7.856;2023-02-15T14:40:42;10.60;99.90
5556;DHT22;2801;50.972;7.856;2023-02-15T14:49:25;10.60;99.90
5556;DHT22;2801;50.972;7.856;2023-02-15T14:51:55;10.60;99.90
5556;DHT22;2801;50.972;7.856;2023-02-15T14:59:55;10.30;99.90
5556;DHT22;2801;50.972;7.856;2023-02-15T15:02:39;10.20;99.90
5556;DHT22;2801;50.972;7.856;2023-02-15T15:05:32;10.10;99.90
5556;DHT22;2801;50.972;7.856;2023-02-15T15:08:03;10.00;99.90
5556;DHT22;2801;50.972;7.856;2023-02-15T15:10:36;9.90;99.90
5556;DHT22;2801;50.972;7.856;2023-02-15T15:16:29;9.70;99.90
5556;DHT22;2801;50.972;7.856;2023-02-15T15:19:04;9.50;99.90
5556;DHT22;2801;50.972;7.856;2023-02-15T15:21:54;9.40;99.90
5556;DHT22;2801;50.972;7.856;2023-02-15T15:27:36;8.90;99.90
5556;DHT22;2801;50.972;7.856;2023-02-15T15:39:15;8.40;99.90
5556;DHT22;2801;50.972;7.856;2023-02-15T15:41:29;8.30;99.90
5556;DHT22;2801;50.972;7.856;2023-02-15T15:44:29;8.20;99.90
5556;DHT22;2801;50.972;7.856;2023-02-15T15:50:20;7.80;99.90
5556;DHT22;2801;50.972;7.856;2023-02-15T15:52:53;7.60;99.90
5556;DHT22;2801;50.972;7.856;2023-02-15T15:55:25;7.40;99.90
5556;DHT22;2801;50.972;7.856;2023-02-15T15:58:06;7.30;99.90
5556;DHT22;2801;50.972;7.856;2023-02-15T16:03:23;7.10;99.90
5556;DHT22;2801;50.972;7.856;2023-02-15T16:05:52;7.00;99.90
5556;DHT22;2801;50.972;7.856;2023-02-15T16:08:36;6.90;99.90
5556;DHT22;2801;50.972;7.856;2023-02-15T16:11:25;6.70;99.90
5556;DHT22;2801;50.972;7.856;2023-02-15T16:13:55;6.60;99.90
5556;DHT22;2801;50.972;7.856;2023-02-15T16:16:25;6.50;99.90
5556;DHT22;2801;50.972;7.856;2023-02-15T16:18:58;6.30;99.90
5556;DHT22;2801;50.972;7.856;2023-02-15T16:21:34;6.40;99.90
5556;DHT22;2801;50.972;7.856;2023-02-15T16:30:30;5.90;99.90
5556;DHT22;2801;50.972;7.856;2023-02-15T16:33:13;5.60;99.90
5556;DHT22;2801;50.972;7.856;2023-02-15T16:35:56;5.40;99.90
5556;DHT22;2801;50.972;7.856;2023-02-15T16:41:10;5.00;99.90
5556;DHT22;2801;50.972;7.856;2023-02-15T16:43:41;4.80;99.90
5556;DHT22;2801;50.972;7.856;2023-02-15T16:46:30;4.70;99.90
5556;DHT22;2801;50.972;7.856;2023-02-15T16:49:02;4.60;99.90
5556;DHT22;2801;50.972;7.856;2023-02-15T16:51:34;4.30;99.90
5556;DHT22;2801;50.972;7.856;2023-02-15T16:54:16;4.30;99.90
5556;DHT22;2801;50.972;7.856;2023-02-15T16:56:47;4.10;99.90
5556;DHT22;2801;50.972;7.856;2023-02-15T16:59:44;4.10;99.90
5556;DHT22;2801;50.972;7.856;2023-02-15T17:02:26;4.10;99.90
5556;DHT22;2801;50.972;7.856;2023-02-15T17:05:18;4.00;99.90
5556;DHT22;2801;50.972;7.856;2023-02-15T17:08:05;4.00;99.90
5556;DHT22;2801;50.972;7.856;2023-02-15T17:10:41;3.90;99.90
5556;DHT22;2801;50.972;7.856;2023-02-15T17:13:16;3.80;99.90
5556;DHT22;2801;50.972;7.856;2023-02-15T17:18:44;3.50;99.90
5556;DHT22;2801;50.972;7.856;2023-02-15T17:21:25;3.40;99.90
5556;DHT22;2801;50.972;7.856;2023-02-15T17:24:02;3.30;99.90
5556;DHT22;2801;50.972;7.856;2023-02-15T17:26:33;3.30;99.90
5556;DHT22;2801;50.972;7.856;2023-02-15T17:29:23;3.20;99.90
5556;DHT22;2801;50.972;7.856;2023-02-15T17:31:57;3.10;99.90
5556;DHT22;2801;50.972;7.856;2023-02-15T17:34:45;3.00;99.90
5556;DHT22;2801;50.972;7.856;2023-02-15T17:40:28;2.90;99.90
5556;DHT22;2801;50.972;7.856;2023-02-15T17:42:56;2.90;99.90
5556;DHT22;2801;50.972;7.856;2023-02-15T17:45:30;3.00;99.90
5556;DHT22;2801;50.972;7.856;2023-02-15T17:48:02;2.80;99.90
5556;DHT22;2801;50.972;7.856;2023-02-15T17:50:31;2.90;99.90
5556;DHT22;2801;50.972;7.856;2023-02-15T17:52:59;2.70;99.90
5556;DHT22;2801;50.972;7.856;2023-02-15T17:55:27;2.70;99.90
5556;DHT22;2801;50.972;7.856;2023-02-15T17:58:03;2.60;99.90
5556;DHT22;2801;50.972;7.856;2023-02-15T18:00:35;2.50;99.90
5556;DHT22;2801;50.972;7.856;2023-02-15T18:03:24;2.40;99.90
5556;DHT22;2801;50.972;7.856;2023-02-15T18:06:13;2.40;99.90
5556;DHT22;2801;50.972;7.856;2023-02-15T18:08:59;2.30;99.90
5556;DHT22;2801;50.972;7.856;2023-02-15T18:11:44;2.30;99.90
5556;DHT22;2801;50.972;7.856;2023-02-15T18:14:14;2.30;99.90
5556;DHT22;2801;50.972;7.856;2023-02-15T18:16:42;2.30;99.90
5556;DHT22;2801;50.972;7.856;2023-02-15T18:19:17;2.20;99.90
5556;DHT22;2801;50.972;7.856;2023-02-15T18:21:47;2.20;99.90
5556;DHT22;2801;50.972;7.856;2023-02-15T18:24:20;2.20;99.90
5556;DHT22;2801;50.972;7.856;2023-02-15T18:26:53;2.10;99.90
5556;DHT22;2801;50.972;7.856;2023-02-15T18:29:21;2.10;99.90
5556;DHT22;2801;50.972;7.856;2023-02-15T18:31:51;2.10;99.90
5556;DHT22;2801;50.972;7.856;2023-02-15T18:34:28;2.10;99.90
5556;DHT22;2801;50.972;7.856;2023-02-15T18:37:02;2.00;99.90
5556;DHT22;2801;50.972;7.856;2023-02-15T18:39:36;2.00;99.90
5556;DHT22;2801;50.972;7.856;2023-02-15T18:42:26;2.00;99.90
5556;DHT22;2801;50.972;7.856;2023-02-15T18:44:57;2.00;99.90
5556;DHT22;2801;50.972;7.856;2023-02-15T18:47:26;2.00;99.90
5556;DHT22;2801;50.972;7.856;2023-02-15T18:49:53;1.90;99.90
5556;DHT22;2801;50.972;7.856;2023-02-15T18:52:22;1.90;99.90
5556;DHT22;2801;50.972;7.856;2023-02-15T18:54:57;1.90;99.90
5556;DHT22;2801;50.972;7.856;2023-02-15T18:57:27;1.90;99.90
5556;DHT22;2801;50.972;7.856;2023-02-15T18:59:55;1.80;99.90
5556;DHT22;2801;50.972;7.856;2023-02-15T19:02:22;1.80;99.90
5556;DHT22;2801;50.972;7.856;2023-02-15T19:04:49;1.70;99.90
5556;DHT22;2801;50.972;7.856;2023-02-15T19:07:21;1.70;99.90
5556;DHT22;2801;50.972;7.856;2023-02-15T19:09:55;1.60;99.90
5556;DHT22;2801;50.972;7.856;2023-02-15T19:12:25;1.60;99.90
5556;DHT22;2801;50.972;7.856;2023-02-15T19:14:54;1.50;99.90
5556;DHT22;2801;50.972;7.856;2023-02-15T19:17:22;1.50;99.90
5556;DHT22;2801;50.972;7.856;2023-02-15T19:19:51;1.40;99.90
5556;DHT22;2801;50.972;7.856;2023-02-15T19:22:29;1.40;99.90
5556;DHT22;2801;50.972;7.856;2023-02-15T19:24:59;1.40;99.90
5556;DHT22;2801;50.972;7.856;2023-02-15T19:27:33;1.30;99.90
5556;DHT22;2801;50.972;7.856;2023-02-15T19:30:06;1.30;99.90
5556;DHT22;2801;50.972;7.856;2023-02-15T19:32:40;1.30;99.90
5556;DHT22;2801;50.972;7.856;2023-02-15T19:35:15;1.20;99.90
5556;DHT22;2801;50.972;7.856;2023-02-15T19:37:51;1.20;99.90
5556;DHT22;2801;50.972;7.856;2023-02-15T19:40:25;1.20;99.90
5556;DHT22;2801;50.972;7.856;2023-02-15T19:42:56;1.20;99.90
5556;DHT22;2801;50.972;7.856;2023-02-15T19:45:29;1.20;99.90
5556;DHT22;2801;50.972;7.856;2023-02-15T19:48:00;1.20;99.90
5556;DHT22;2801;50.972;7.856;2023-02-15T19:50:32;1.20;99.90
5556;DHT22;2801;50.972;7.856;2023-02-15T19:53:01;1.10;99.90
5556;DHT22;2801;50.972;7.856;2023-02-15T19:55:30;1.10;99.90
5556;DHT22;2801;50.972;7.856;2023-02-15T19:58:00;1.00;99.90
5556;DHT22;2801;50.972;7.856;2023-02-15T20:00:32;1.00;99.90
5556;DHT22;2801;50.972;7.856;2023-02-15T20:03:00;1.10;99.90
5556;DHT22;2801;50.972;7.856;2023-02-15T20:05:31;1.00;99.90
5556;DHT22;2801;50.972;7.856;2023-02-15T20:08:05;1.00;99.90